createdAt,value
2022-09-17T00:00:53.627Z,97.65
2022-09-17T00:01:53.681Z,97.55
2022-09-17T00:02:53.696Z,97.75
2022-09-17T00:03:53.594Z,97.75
2022-09-17T00:04:53.573Z,98.07
2022-09-17T00:05:53.582Z,98.47
2022-09-17T00:06:53.539Z,98.37
2022-09-17T00:07:53.529Z,98.37
2022-09-17T00:08:53.521Z,98.47
2022-09-17T00:09:53.512Z,98.43
2022-09-17T00:10:53.496Z,98.22
2022-09-17T00:11:53.499Z,98.63
2022-09-17T00:12:53.480Z,98.63
2022-09-17T00:13:53.535Z,98.94
2022-09-17T00:14:53.450Z,99.15
2022-09-17T00:15:53.502Z,99.15
2022-09-17T00:16:53.905Z,99.55
2022-09-17T00:17:53.422Z,99.76
2022-09-17T00:19:00.457Z,99.99
2022-09-17T00:19:53.396Z,99.99
2022-09-17T00:20:53.387Z,99.99
2022-09-17T00:21:53.366Z,99.99
2022-09-17T00:22:53.386Z,99.80
2022-09-17T00:23:53.356Z,99.60
2022-09-17T00:24:53.335Z,99.60
2022-09-17T00:25:53.326Z,99.60
2022-09-17T00:26:53.316Z,99.40
2022-09-17T00:27:53.329Z,99.40
2022-09-17T00:28:53.299Z,99.50
2022-09-17T00:29:53.277Z,99.60
2022-09-17T00:30:53.335Z,99.50
2022-09-17T00:31:53.266Z,99.50
2022-09-17T00:32:53.258Z,99.50
2022-09-17T00:33:53.256Z,99.50
2022-09-17T00:34:53.227Z,99.40
2022-09-17T00:35:53.207Z,99.35
2022-09-17T00:36:53.207Z,99.35
2022-09-17T00:37:53.186Z,99.45
2022-09-17T00:38:53.207Z,99.55
2022-09-17T00:39:53.211Z,99.66
2022-09-17T00:40:53.164Z,99.76
2022-09-17T00:41:53.146Z,99.76
2022-09-17T00:42:53.126Z,99.66
2022-09-17T00:43:53.139Z,99.55
2022-09-17T00:44:53.139Z,99.50
2022-09-17T00:45:53.106Z,99.19
2022-09-17T00:46:53.118Z,99.09
2022-09-17T00:47:53.086Z,99.35
2022-09-17T00:48:53.074Z,99.04
2022-09-17T00:49:53.055Z,99.25
2022-09-17T00:50:53.066Z,99.66
2022-09-17T00:51:55.057Z,99.55
2022-09-17T00:52:54.017Z,99.45
2022-09-17T00:53:53.017Z,99.66
2022-09-17T00:54:53.004Z,99.66
2022-09-17T00:55:53.038Z,99.76
2022-09-17T00:56:52.978Z,99.99
2022-09-17T00:57:52.966Z,99.99
2022-09-17T00:58:52.955Z,99.99
2022-09-17T00:59:52.948Z,99.99
2022-09-17T01:00:52.984Z,99.99
2022-09-17T01:01:53.041Z,99.99
2022-09-17T01:02:52.907Z,99.99
2022-09-17T01:03:52.906Z,99.99
2022-09-17T01:04:52.884Z,99.99
2022-09-17T01:05:52.876Z,99.99
2022-09-17T01:06:52.856Z,99.99
2022-09-17T01:07:52.867Z,99.99
2022-09-17T01:08:52.837Z,99.99
2022-09-17T01:09:52.839Z,99.99
2022-09-17T01:10:52.816Z,99.99
2022-09-17T01:11:52.806Z,99.99
2022-09-17T01:12:52.814Z,99.99
2022-09-17T01:13:52.796Z,99.99
2022-09-17T01:14:52.766Z,99.99
2022-09-17T01:15:52.797Z,99.99
2022-09-17T01:16:52.747Z,99.99
2022-09-17T01:17:52.736Z,99.99
2022-09-17T01:18:52.738Z,99.99
2022-09-17T01:19:52.717Z,99.99
2022-09-17T01:20:52.709Z,99.99
2022-09-17T01:21:52.698Z,99.99
2022-09-17T01:22:52.676Z,99.99
2022-09-17T01:23:52.709Z,99.99
2022-09-17T01:24:52.669Z,99.99
2022-09-17T01:25:52.646Z,99.99
2022-09-17T01:26:52.636Z,99.99
2022-09-17T01:27:52.626Z,99.99
2022-09-17T01:28:52.616Z,99.99
2022-09-17T01:29:52.635Z,99.99
2022-09-17T01:30:52.594Z,99.99
2022-09-17T01:31:52.621Z,99.99
2022-09-17T01:32:52.577Z,99.99
2022-09-17T01:33:52.566Z,99.91
2022-09-17T01:34:52.546Z,99.91
2022-09-17T01:35:52.614Z,99.71
2022-09-17T01:36:52.518Z,99.41
2022-09-17T01:37:52.516Z,99.41
2022-09-17T01:38:52.514Z,99.30
2022-09-17T01:39:52.573Z,98.99
2022-09-17T01:40:52.487Z,98.90
2022-09-17T01:41:52.491Z,98.69
2022-09-17T01:42:52.468Z,98.58
2022-09-17T01:43:52.465Z,98.58
2022-09-17T01:44:52.435Z,98.49
2022-09-17T01:45:52.438Z,98.79
2022-09-17T01:46:52.518Z,98.28
2022-09-17T01:47:52.406Z,97.87
2022-09-17T01:48:52.388Z,97.66
2022-09-17T01:49:52.377Z,97.15
2022-09-17T01:50:52.366Z,96.79
2022-09-17T01:51:52.366Z,96.17
2022-09-17T01:52:52.381Z,95.97
2022-09-17T01:53:52.389Z,95.97
2022-09-17T01:54:52.328Z,95.15
2022-09-17T01:55:52.316Z,94.33
2022-09-17T01:56:52.301Z,93.92
2022-09-17T01:57:52.287Z,94.12
2022-09-17T01:58:52.357Z,93.41
2022-09-17T01:59:52.267Z,92.69
2022-09-17T02:00:52.361Z,91.46
2022-09-17T02:01:52.303Z,90.34
2022-09-17T02:02:52.227Z,89.83
2022-09-17T02:03:52.247Z,89.62
2022-09-17T02:04:52.226Z,88.70
2022-09-17T02:05:52.206Z,87.98
2022-09-17T02:06:52.189Z,88.08
2022-09-17T02:07:52.178Z,88.18
2022-09-17T02:08:52.159Z,87.06
2022-09-17T02:09:52.194Z,86.96
2022-09-17T02:10:52.138Z,86.75
2022-09-17T02:11:52.141Z,85.83
2022-09-17T02:12:52.117Z,84.80
2022-09-17T02:13:52.117Z,84.80
2022-09-17T02:14:52.108Z,84.91
2022-09-17T02:15:52.154Z,84.29
2022-09-17T02:16:52.080Z,82.24
2022-09-17T02:17:52.066Z,82.35
2022-09-17T02:18:52.055Z,82.39
2022-09-17T02:19:52.041Z,81.57
2022-09-17T02:20:52.027Z,81.05
2022-09-17T02:21:52.047Z,81.05
2022-09-17T02:22:52.006Z,80.44
2022-09-17T02:23:52.007Z,79.72
2022-09-17T02:24:51.986Z,79.21
2022-09-17T02:25:51.977Z,78.90
2022-09-17T02:26:51.959Z,78.39
2022-09-17T02:27:51.977Z,78.39
2022-09-17T02:28:51.936Z,77.87
2022-09-17T02:29:51.934Z,77.36
2022-09-17T02:30:51.917Z,76.75
2022-09-17T02:31:51.971Z,76.54
2022-09-17T02:32:51.918Z,76.24
2022-09-17T02:33:51.985Z,76.17
2022-09-17T02:34:51.872Z,75.86
2022-09-17T02:35:51.866Z,75.35
2022-09-17T02:36:51.848Z,74.94
2022-09-17T02:37:51.837Z,73.91
2022-09-17T02:38:51.867Z,73.47
2022-09-17T02:39:51.844Z,72.86
2022-09-17T02:40:51.807Z,72.44
2022-09-17T02:41:51.795Z,72.44
2022-09-17T02:42:51.788Z,72.07
2022-09-17T02:43:51.964Z,71.66
2022-09-17T02:44:51.777Z,71.45
2022-09-17T02:45:51.747Z,71.25
2022-09-17T02:46:51.758Z,71.35
2022-09-17T02:47:51.726Z,71.25
2022-09-17T02:48:51.707Z,71.25
2022-09-17T02:49:51.705Z,71.35
2022-09-17T02:50:51.706Z,72.58
2022-09-17T02:51:51.685Z,72.17
2022-09-17T02:52:51.667Z,71.97
2022-09-17T02:53:51.666Z,71.86
2022-09-17T02:54:51.657Z,71.97
2022-09-17T02:55:51.658Z,71.76
2022-09-17T02:56:51.617Z,71.35
2022-09-17T02:57:51.614Z,71.04
2022-09-17T02:58:51.605Z,71.04
2022-09-17T02:59:51.587Z,70.84
2022-09-17T03:00:51.654Z,70.73
2022-09-17T03:01:51.617Z,70.32
2022-09-17T03:02:51.555Z,69.92
2022-09-17T03:03:51.556Z,69.71
2022-09-17T03:04:51.545Z,69.81
2022-09-17T03:05:51.533Z,69.51
2022-09-17T03:06:51.517Z,69.51
2022-09-17T03:07:51.517Z,69.30
2022-09-17T03:08:51.486Z,68.79
2022-09-17T03:09:51.476Z,68.68
2022-09-17T03:10:51.465Z,68.48
2022-09-17T03:11:51.455Z,68.27
2022-09-17T03:12:51.457Z,67.86
2022-09-17T03:13:51.447Z,67.46
2022-09-17T03:14:51.417Z,67.35
2022-09-17T03:15:51.455Z,67.14
2022-09-17T03:16:51.397Z,67.25
2022-09-17T03:17:53.386Z,67.66
2022-09-17T03:18:51.397Z,67.56
2022-09-17T03:19:51.364Z,67.56
2022-09-17T03:20:51.349Z,67.05
2022-09-17T03:21:51.346Z,67.25
2022-09-17T03:22:51.331Z,67.25
2022-09-17T03:23:51.327Z,66.74
2022-09-17T03:24:51.327Z,66.94
2022-09-17T03:25:51.300Z,66.22
2022-09-17T03:26:51.284Z,67.25
2022-09-17T03:27:51.276Z,67.25
2022-09-17T03:28:51.268Z,67.46
2022-09-17T03:29:51.249Z,67.05
2022-09-17T03:30:51.272Z,67.25
2022-09-17T03:31:51.275Z,67.35
2022-09-17T03:32:51.212Z,67.46
2022-09-17T03:33:51.221Z,67.66
2022-09-17T03:34:51.188Z,67.76
2022-09-17T03:35:51.199Z,67.25
2022-09-17T03:36:51.196Z,67.86
2022-09-17T03:37:51.162Z,68.07
2022-09-17T03:38:51.155Z,67.86
2022-09-17T03:39:51.212Z,67.76
2022-09-17T03:40:51.135Z,68.17
2022-09-17T03:41:51.167Z,68.48
2022-09-17T03:42:51.114Z,68.79
2022-09-17T03:43:51.107Z,69.10
2022-09-17T03:44:51.078Z,68.89
2022-09-17T03:45:51.068Z,68.79
2022-09-17T03:46:51.170Z,68.48
2022-09-17T03:47:51.066Z,68.17
2022-09-17T03:48:51.046Z,68.17
2022-09-17T03:49:51.017Z,68.38
2022-09-17T03:50:51.016Z,68.59
2022-09-17T03:51:50.997Z,68.68
2022-09-17T03:52:50.988Z,68.59
2022-09-17T03:53:51.008Z,68.48
2022-09-17T03:54:50.975Z,67.97
2022-09-17T03:55:50.952Z,67.97
2022-09-17T03:56:50.959Z,68.07
2022-09-17T03:57:50.937Z,68.17
2022-09-17T03:58:50.929Z,68.38
2022-09-17T03:59:50.928Z,68.38
2022-09-17T04:00:50.939Z,67.97
2022-09-17T04:01:51.008Z,68.07
2022-09-17T04:02:50.961Z,68.48
2022-09-17T04:03:50.889Z,68.27
2022-09-17T04:04:50.857Z,68.59
2022-09-17T04:05:50.858Z,68.79
2022-09-17T04:06:50.836Z,68.51
2022-09-17T04:07:50.817Z,68.62
2022-09-17T04:08:50.816Z,68.51
2022-09-17T04:09:50.797Z,68.51
2022-09-17T04:10:50.787Z,68.41
2022-09-17T04:11:50.798Z,68.10
2022-09-17T04:12:50.769Z,68.00
2022-09-17T04:13:50.757Z,67.38
2022-09-17T04:14:50.746Z,67.08
2022-09-17T04:15:50.776Z,66.56
2022-09-17T04:16:50.717Z,66.87
2022-09-17T04:17:50.728Z,67.08
2022-09-17T04:18:50.697Z,66.67
2022-09-17T04:19:50.689Z,67.28
2022-09-17T04:20:50.675Z,67.18
2022-09-17T04:21:50.658Z,67.59
2022-09-17T04:22:50.657Z,67.79
2022-09-17T04:23:50.676Z,68.30
2022-09-17T04:24:50.627Z,67.69
2022-09-17T04:25:50.628Z,67.90
2022-09-17T04:26:50.607Z,68.24
2022-09-17T04:27:50.591Z,67.93
2022-09-17T04:28:50.616Z,67.32
2022-09-17T04:29:50.567Z,67.32
2022-09-17T04:30:50.719Z,67.32
2022-09-17T04:31:50.549Z,66.90
2022-09-17T04:32:50.537Z,66.90
2022-09-17T04:33:50.537Z,67.32
2022-09-17T04:34:50.538Z,66.60
2022-09-17T04:35:50.497Z,66.70
2022-09-17T04:36:50.495Z,66.49
2022-09-17T04:37:50.486Z,67.21
2022-09-17T04:38:50.467Z,67.62
2022-09-17T04:39:50.535Z,68.24
2022-09-17T04:40:50.447Z,68.34
2022-09-17T04:41:50.448Z,67.72
2022-09-17T04:42:50.430Z,68.34
2022-09-17T04:43:50.419Z,68.10
2022-09-17T04:44:50.409Z,68.96
2022-09-17T04:45:50.408Z,69.47
2022-09-17T04:46:50.450Z,69.57
2022-09-17T04:47:50.368Z,69.67
2022-09-17T04:48:50.356Z,69.67
2022-09-17T04:49:50.346Z,69.16
2022-09-17T04:50:50.338Z,69.67
2022-09-17T04:51:50.346Z,69.47
2022-09-17T04:52:50.318Z,70.08
2022-09-17T04:53:50.339Z,70.50
2022-09-17T04:54:50.297Z,70.60
2022-09-17T04:55:50.277Z,71.52
2022-09-17T04:56:50.269Z,71.31
2022-09-17T04:57:50.389Z,71.62
2022-09-17T04:58:50.248Z,71.62
2022-09-17T04:59:50.227Z,71.21
2022-09-17T05:00:50.283Z,71.42
2022-09-17T05:01:50.258Z,71.31
2022-09-17T05:02:50.199Z,71.93
2022-09-17T05:03:50.227Z,71.62
2022-09-17T05:04:50.177Z,71.72
2022-09-17T05:05:50.165Z,71.80
2022-09-17T05:06:50.155Z,72.51
2022-09-17T05:07:50.147Z,72.00
2022-09-17T05:08:50.137Z,71.80
2022-09-17T05:09:50.149Z,71.83
2022-09-17T05:10:50.107Z,71.52
2022-09-17T05:11:50.097Z,71.72
2022-09-17T05:12:50.161Z,71.01
2022-09-17T05:13:50.076Z,71.31
2022-09-17T05:14:50.085Z,71.04
2022-09-17T05:15:50.129Z,70.12
2022-09-17T05:16:50.045Z,69.70
2022-09-17T05:17:50.038Z,70.01
2022-09-17T05:18:50.017Z,69.70
2022-09-17T05:19:50.035Z,69.57
2022-09-17T05:20:50.026Z,69.70
2022-09-17T05:21:49.989Z,69.81
2022-09-17T05:22:49.976Z,69.50
2022-09-17T05:23:49.967Z,69.29
2022-09-17T05:24:49.960Z,69.29
2022-09-17T05:25:49.944Z,68.88
2022-09-17T05:26:49.954Z,68.88
2022-09-17T05:27:49.916Z,68.88
2022-09-17T05:28:49.910Z,68.68
2022-09-17T05:29:49.894Z,68.78
2022-09-17T05:30:49.886Z,69.09
2022-09-17T05:31:49.867Z,68.48
2022-09-17T05:32:49.878Z,68.99
2022-09-17T05:33:49.857Z,68.57
2022-09-17T05:34:49.838Z,68.57
2022-09-17T05:35:49.827Z,68.68
2022-09-17T05:36:49.832Z,68.37
2022-09-17T05:37:49.807Z,68.48
2022-09-17T05:38:49.875Z,68.57
2022-09-17T05:39:49.816Z,68.44
2022-09-17T05:40:49.775Z,68.34
2022-09-17T05:41:49.757Z,68.65
2022-09-17T05:42:49.755Z,69.06
2022-09-17T05:43:49.765Z,69.16
2022-09-17T05:44:49.746Z,69.37
2022-09-17T05:45:49.706Z,69.67
2022-09-17T05:46:49.750Z,70.60
2022-09-17T05:47:49.698Z,70.70
2022-09-17T05:48:49.676Z,71.18
2022-09-17T05:49:49.698Z,71.59
2022-09-17T05:50:49.657Z,71.48
2022-09-17T05:51:49.637Z,71.28
2022-09-17T05:52:49.637Z,72.10
2022-09-17T05:53:49.627Z,71.93
2022-09-17T05:54:49.616Z,71.69
2022-09-17T05:55:49.638Z,71.28
2022-09-17T05:56:49.587Z,71.59
2022-09-17T05:57:49.592Z,71.48
2022-09-17T05:58:49.731Z,71.39
2022-09-17T05:59:49.561Z,71.39
2022-09-17T06:00:49.580Z,71.59
2022-09-17T06:01:49.584Z,72.51
2022-09-17T06:02:49.559Z,72.51
2022-09-17T06:03:49.590Z,72.58
2022-09-17T06:04:49.496Z,72.99
2022-09-17T06:05:49.487Z,73.50
2022-09-17T06:06:49.508Z,74.12
2022-09-17T06:07:49.467Z,74.84
2022-09-17T06:08:49.500Z,75.45
2022-09-17T06:09:49.445Z,76.85
2022-09-17T06:10:49.426Z,77.47
2022-09-17T06:11:49.417Z,78.59
2022-09-17T06:12:49.432Z,79.11
2022-09-17T06:13:49.487Z,79.93
2022-09-17T06:14:49.385Z,80.44
2022-09-17T06:15:49.482Z,82.45
2022-09-17T06:16:49.367Z,82.55
2022-09-17T06:17:49.376Z,83.17
2022-09-17T06:18:49.346Z,85.01
2022-09-17T06:19:56.389Z,85.52
2022-09-17T06:20:51.959Z,85.89
2022-09-17T06:21:51.928Z,86.51
2022-09-17T06:22:49.304Z,87.12
2022-09-17T06:23:49.333Z,88.00
2022-09-17T06:24:49.280Z,88.41
2022-09-17T06:25:49.262Z,89.09
2022-09-17T06:26:49.250Z,88.98
2022-09-17T06:27:49.240Z,90.68
2022-09-17T06:28:49.321Z,93.25
2022-09-17T06:29:49.240Z,97.96
2022-09-17T06:30:49.328Z,99.99
2022-09-17T06:31:49.367Z,99.99
2022-09-17T06:32:49.187Z,99.99
2022-09-17T06:33:49.188Z,99.99
2022-09-17T06:34:49.202Z,99.99
2022-09-17T06:35:49.146Z,99.99
2022-09-17T06:36:49.139Z,99.99
2022-09-17T06:37:49.139Z,99.99
2022-09-17T06:38:49.184Z,99.99
2022-09-17T06:39:49.111Z,97.55
2022-09-17T06:40:49.111Z,94.82
2022-09-17T06:41:49.079Z,88.90
2022-09-17T06:42:49.070Z,84.41
2022-09-17T06:43:49.059Z,81.09
2022-09-17T06:44:49.063Z,77.30
2022-09-17T06:45:49.111Z,77.37
2022-09-17T06:46:49.074Z,73.19
2022-09-17T06:47:49.012Z,72.44
2022-09-17T06:48:49.015Z,72.00
2022-09-17T06:49:48.994Z,69.08
2022-09-17T06:50:48.993Z,70.66
2022-09-17T06:51:48.981Z,68.95
2022-09-17T06:52:48.962Z,68.51
2022-09-17T06:53:49.019Z,66.76
2022-09-17T06:54:48.943Z,67.60
2022-09-17T06:55:48.923Z,65.59
2022-09-17T06:56:48.942Z,65.52
2022-09-17T06:57:48.900Z,66.87
2022-09-17T06:58:48.891Z,64.42
2022-09-17T06:59:48.880Z,64.05
2022-09-17T07:00:48.899Z,65.66
2022-09-17T07:01:48.898Z,63.92
2022-09-17T07:02:48.873Z,63.89
2022-09-17T07:03:48.832Z,62.12
2022-09-17T07:04:48.832Z,61.31
2022-09-17T07:05:48.815Z,63.05
2022-09-17T07:06:48.803Z,62.75
2022-09-17T07:07:48.814Z,62.71
2022-09-17T07:08:48.831Z,63.39
2022-09-17T07:09:48.773Z,62.07
2022-09-17T07:10:48.762Z,63.48
2022-09-17T07:11:48.754Z,62.78
2022-09-17T07:12:50.012Z,62.30
2022-09-17T07:13:48.776Z,62.07
2022-09-17T07:14:48.734Z,62.07
2022-09-17T07:15:48.717Z,62.68
2022-09-17T07:16:48.697Z,61.98
2022-09-17T07:17:48.677Z,60.97
2022-09-17T07:18:48.675Z,61.50
2022-09-17T07:19:48.686Z,61.60
2022-09-17T07:20:48.653Z,62.15
2022-09-17T07:21:48.638Z,60.51
2022-09-17T07:22:48.626Z,60.08
2022-09-17T07:23:48.681Z,60.21
2022-09-17T07:24:48.610Z,60.61
2022-09-17T07:25:48.605Z,60.15
2022-09-17T07:26:48.576Z,60.31
2022-09-17T07:27:48.566Z,60.97
2022-09-17T07:28:48.568Z,62.61
2022-09-17T07:29:48.558Z,61.34
2022-09-17T07:30:48.600Z,60.57
2022-09-17T07:31:48.554Z,61.03
2022-09-17T07:32:48.519Z,62.61
2022-09-17T07:33:48.499Z,61.14
2022-09-17T07:34:48.488Z,60.21
2022-09-17T07:35:48.477Z,62.55
2022-09-17T07:36:48.488Z,59.85
2022-09-17T07:37:48.448Z,59.65
2022-09-17T07:38:48.534Z,58.27
2022-09-17T07:39:48.430Z,59.25
2022-09-17T07:40:48.429Z,58.44
2022-09-17T07:41:48.479Z,58.97
2022-09-17T07:42:48.419Z,57.97
2022-09-17T07:43:48.395Z,59.45
2022-09-17T07:44:48.381Z,58.31
2022-09-17T07:45:48.371Z,56.81
2022-09-17T07:46:48.429Z,57.48
2022-09-17T07:47:48.362Z,56.28
2022-09-17T07:48:48.343Z,57.08
2022-09-17T07:49:48.322Z,57.08
2022-09-17T07:50:48.319Z,56.74
2022-09-17T07:51:48.321Z,57.67
2022-09-17T07:52:48.293Z,59.13
2022-09-17T07:53:48.365Z,59.03
2022-09-17T07:54:48.271Z,59.30
2022-09-17T07:55:48.262Z,59.41
2022-09-17T07:56:48.244Z,57.77
2022-09-17T07:57:48.242Z,57.31
2022-09-17T07:58:48.233Z,56.83
2022-09-17T07:59:48.263Z,57.04
2022-09-17T08:00:48.231Z,58.55
2022-09-17T08:01:48.279Z,60.09
2022-09-17T08:02:48.229Z,61.53
2022-09-17T08:03:48.184Z,60.27
2022-09-17T08:04:48.156Z,60.55
2022-09-17T08:05:48.166Z,60.55
2022-09-17T08:06:48.136Z,61.18
2022-09-17T08:07:48.134Z,63.29
2022-09-17T08:08:48.125Z,63.46
2022-09-17T08:09:48.106Z,62.77
2022-09-17T08:10:48.118Z,61.07
2022-09-17T08:11:56.693Z,58.93
2022-09-17T08:12:49.077Z,59.96
2022-09-17T08:13:48.065Z,61.13
2022-09-17T08:14:48.053Z,60.57
2022-09-17T08:15:48.061Z,59.23
2022-09-17T08:16:48.047Z,60.06
2022-09-17T08:17:48.016Z,60.03
2022-09-17T08:18:48.005Z,58.90
2022-09-17T08:19:47.998Z,57.82
2022-09-17T08:20:48.011Z,58.22
2022-09-17T08:21:47.979Z,57.70
2022-09-17T08:22:50.189Z,58.20
2022-09-17T08:23:47.964Z,57.37
2022-09-17T08:24:47.938Z,56.66
2022-09-17T08:25:47.932Z,56.89
2022-09-17T08:26:47.918Z,58.90
2022-09-17T08:27:47.928Z,57.82
2022-09-17T08:28:47.903Z,59.42
2022-09-17T08:29:47.889Z,61.29
2022-09-17T08:30:47.872Z,62.76
2022-09-17T08:31:47.919Z,63.73
2022-09-17T08:32:47.852Z,65.20
2022-09-17T08:33:47.869Z,66.14
2022-09-17T08:34:47.830Z,66.78
2022-09-17T08:35:47.821Z,67.49
2022-09-17T08:36:47.801Z,67.65
2022-09-17T08:37:47.807Z,70.01
2022-09-17T08:38:47.841Z,70.05
2022-09-17T08:39:47.797Z,68.53
2022-09-17T08:40:47.762Z,66.61
2022-09-17T08:41:47.766Z,64.10
2022-09-17T08:42:47.741Z,62.22
2022-09-17T08:43:47.732Z,61.56
2022-09-17T08:44:48.589Z,58.71
2022-09-17T08:45:47.713Z,58.68
2022-09-17T08:46:47.786Z,57.65
2022-09-17T08:47:47.691Z,58.25
2022-09-17T08:48:47.681Z,58.20
2022-09-17T08:49:47.669Z,56.74
2022-09-17T08:50:47.672Z,56.91
2022-09-17T08:51:47.643Z,56.01
2022-09-17T08:52:47.643Z,55.08
2022-09-17T08:53:47.623Z,55.40
2022-09-17T08:54:48.386Z,57.28
2022-09-17T08:55:47.607Z,55.00
2022-09-17T08:56:47.645Z,56.69
2022-09-17T08:57:47.575Z,58.11
2022-09-17T08:58:47.564Z,60.25
2022-09-17T08:59:47.565Z,58.58
2022-09-17T09:00:47.544Z,58.74
2022-09-17T09:01:47.660Z,60.38
2022-09-17T09:02:47.568Z,59.64
2022-09-17T09:03:47.515Z,59.19
2022-09-17T09:04:47.497Z,58.03
2022-09-17T09:05:47.503Z,59.33
2022-09-17T09:06:47.476Z,60.57
2022-09-17T09:07:47.486Z,60.41
2022-09-17T09:08:47.517Z,59.17
2022-09-17T09:09:47.446Z,59.33
2022-09-17T09:10:47.436Z,58.06
2022-09-17T09:11:47.417Z,57.93
2022-09-17T09:12:47.406Z,59.57
2022-09-17T09:13:47.415Z,58.91
2022-09-17T09:14:47.387Z,57.75
2022-09-17T09:15:47.403Z,54.96
2022-09-17T09:16:47.358Z,57.60
2022-09-17T09:17:47.348Z,56.59
2022-09-17T09:18:47.358Z,54.72
2022-09-17T09:19:47.329Z,54.10
2022-09-17T09:20:47.321Z,53.37
2022-09-17T09:21:47.309Z,53.75
2022-09-17T09:22:47.288Z,52.69
2022-09-17T09:23:47.289Z,53.22
2022-09-17T09:24:47.289Z,54.08
2022-09-17T09:25:47.263Z,55.06
2022-09-17T09:26:47.250Z,55.91
2022-09-17T09:27:47.249Z,57.35
2022-09-17T09:28:47.230Z,58.49
2022-09-17T09:29:47.249Z,59.73
2022-09-17T09:30:47.212Z,59.63
2022-09-17T09:31:47.254Z,59.53
2022-09-17T09:32:47.189Z,59.22
2022-09-17T09:33:48.075Z,59.63
2022-09-17T09:34:47.161Z,60.24
2022-09-17T09:35:47.171Z,60.24
2022-09-17T09:36:47.141Z,59.35
2022-09-17T09:37:47.132Z,59.18
2022-09-17T09:38:47.114Z,59.61
2022-09-17T09:39:47.111Z,60.62
2022-09-17T09:40:47.113Z,60.35
2022-09-17T09:41:47.093Z,60.96
2022-09-17T09:42:47.080Z,62.24
2022-09-17T09:44:03.222Z,62.07
2022-09-17T09:44:48.052Z,62.40
2022-09-17T09:45:47.892Z,62.63
2022-09-17T09:46:47.109Z,63.95
2022-09-17T09:47:47.023Z,64.18
2022-09-17T09:48:47.002Z,63.50
2022-09-17T09:49:47.002Z,64.85
2022-09-17T09:51:04.600Z,65.15
2022-09-17T09:51:47.993Z,65.05
2022-09-17T09:52:46.964Z,64.75
2022-09-17T09:53:47.039Z,64.72
2022-09-17T09:54:47.025Z,63.81
2022-09-17T09:55:46.934Z,64.21
2022-09-17T09:56:46.914Z,64.31
2022-09-17T09:57:46.926Z,64.01
2022-09-17T09:58:46.895Z,63.67
2022-09-17T09:59:46.884Z,63.83
2022-09-17T10:00:46.874Z,63.53
2022-09-17T10:01:46.984Z,64.58
2022-09-17T10:02:46.990Z,65.05
2022-09-17T10:03:46.848Z,64.44
2022-09-17T10:04:51.413Z,65.05
2022-09-17T10:05:47.827Z,64.64
2022-09-17T10:06:46.826Z,64.34
2022-09-17T10:07:46.805Z,64.98
2022-09-17T10:08:46.805Z,65.99
2022-09-17T10:09:46.785Z,65.62
2022-09-17T10:10:46.765Z,66.43
2022-09-17T10:11:46.757Z,64.61
2022-09-17T10:12:46.747Z,64.61
2022-09-17T10:13:46.736Z,64.81
2022-09-17T10:14:46.810Z,65.04
2022-09-17T10:15:46.729Z,66.05
2022-09-17T10:16:46.697Z,66.77
2022-09-17T10:17:46.696Z,67.27
2022-09-17T10:18:46.676Z,66.26
2022-09-17T10:19:46.666Z,66.46
2022-09-17T10:20:46.676Z,67.27
2022-09-17T10:21:46.646Z,67.68
2022-09-17T10:22:46.637Z,66.86
2022-09-17T10:23:46.702Z,66.56
2022-09-17T10:24:46.607Z,67.78
2022-09-17T10:25:46.598Z,66.77
2022-09-17T10:26:46.607Z,67.27
2022-09-17T10:27:46.578Z,66.53
2022-09-17T10:28:46.557Z,67.44
2022-09-17T10:29:46.557Z,67.31
2022-09-17T10:30:46.547Z,65.36
2022-09-17T10:31:46.601Z,65.96
2022-09-17T10:32:46.517Z,66.24
2022-09-17T10:33:46.508Z,63.78
2022-09-17T10:34:46.497Z,63.07
2022-09-17T10:35:46.487Z,63.67
2022-09-17T10:36:46.475Z,63.75
2022-09-17T10:37:46.496Z,63.81
2022-09-17T10:38:46.558Z,61.29
2022-09-17T10:39:46.449Z,61.96
2022-09-17T10:40:46.429Z,60.62
2022-09-17T10:41:46.418Z,59.51
2022-09-17T10:42:46.408Z,59.58
2022-09-17T10:43:46.408Z,57.87
2022-09-17T10:44:46.378Z,59.11
2022-09-17T10:45:46.368Z,59.34
2022-09-17T10:46:46.476Z,58.33
2022-09-17T10:47:46.357Z,58.36
2022-09-17T10:48:46.369Z,58.05
2022-09-17T10:49:46.330Z,58.58
2022-09-17T10:50:46.319Z,59.29
2022-09-17T10:51:46.309Z,59.16
2022-09-17T10:52:46.298Z,60.35
2022-09-17T10:53:46.321Z,59.81
2022-09-17T10:54:46.300Z,59.51
2022-09-17T10:55:46.268Z,59.18
2022-09-17T10:56:46.251Z,58.87
2022-09-17T10:57:46.241Z,58.54
2022-09-17T10:58:46.231Z,56.73
2022-09-17T10:59:46.220Z,56.93
2022-09-17T11:00:46.220Z,58.12
2022-09-17T11:01:46.334Z,56.30
2022-09-17T11:02:46.224Z,56.83
2022-09-17T11:03:46.178Z,57.34
2022-09-17T11:04:46.161Z,57.14
2022-09-17T11:05:46.203Z,56.96
2022-09-17T11:06:46.139Z,57.69
2022-09-17T11:07:46.131Z,57.79
2022-09-17T11:08:46.140Z,56.58
2022-09-17T11:09:46.110Z,56.40
2022-09-17T11:10:46.091Z,55.90
2022-09-17T11:11:46.101Z,56.71
2022-09-17T11:12:46.070Z,57.62
2022-09-17T11:13:46.062Z,57.31
2022-09-17T11:14:46.054Z,59.16
2022-09-17T11:15:48.599Z,60.25
2022-09-17T11:16:47.115Z,60.45
2022-09-17T11:17:46.025Z,60.85
2022-09-17T11:18:46.003Z,61.36
2022-09-17T11:19:46.003Z,60.25
2022-09-17T11:20:45.984Z,60.96
2022-09-17T11:21:45.972Z,59.23
2022-09-17T11:22:45.975Z,60.05
2022-09-17T11:23:46.031Z,60.35
2022-09-17T11:24:45.944Z,60.55
2022-09-17T11:25:45.937Z,58.73
2022-09-17T11:26:45.924Z,57.62
2022-09-17T11:27:45.944Z,57.72
2022-09-17T11:28:45.902Z,58.53
2022-09-17T11:29:45.894Z,59.23
2022-09-17T11:30:45.876Z,59.00
2022-09-17T11:31:45.939Z,59.51
2022-09-17T11:32:45.853Z,59.38
2022-09-17T11:33:45.865Z,56.96
2022-09-17T11:34:45.837Z,53.34
2022-09-17T11:35:45.826Z,55.67
2022-09-17T11:36:45.812Z,56.07
2022-09-17T11:37:45.805Z,55.16
2022-09-17T11:38:45.820Z,54.28
2022-09-17T11:39:45.806Z,54.38
2022-09-17T11:40:45.765Z,56.10
2022-09-17T11:41:45.756Z,57.49
2022-09-17T11:42:45.743Z,55.85
2022-09-17T11:43:45.740Z,56.35
2022-09-17T11:44:45.718Z,55.85
2022-09-17T11:45:45.740Z,56.05
2022-09-17T11:46:45.741Z,54.03
2022-09-17T11:47:45.686Z,51.93
2022-09-17T11:48:45.678Z,51.43
2022-09-17T11:49:45.667Z,52.23
2022-09-17T11:50:45.656Z,52.03
2022-09-17T11:51:45.701Z,52.64
2022-09-17T11:52:45.654Z,53.55
2022-09-17T11:53:45.631Z,55.34
2022-09-17T11:54:45.607Z,56.63
2022-09-17T11:55:45.611Z,57.21
2022-09-17T11:56:45.607Z,57.01
2022-09-17T11:57:45.580Z,56.57
2022-09-17T11:58:45.578Z,56.27
2022-09-17T11:59:45.558Z,56.10
2022-09-17T12:00:45.545Z,57.34
2022-09-17T12:01:45.611Z,57.94
2022-09-17T12:02:45.585Z,57.14
2022-09-17T12:03:45.517Z,58.04
2022-09-17T12:04:45.510Z,58.04
2022-09-17T12:05:45.498Z,58.30
2022-09-17T12:06:45.480Z,58.70
2022-09-17T12:07:45.468Z,59.03
2022-09-17T12:08:45.487Z,60.35
2022-09-17T12:09:45.447Z,60.58
2022-09-17T12:10:45.438Z,60.27
2022-09-17T12:11:45.418Z,60.91
2022-09-17T12:12:50.075Z,62.15
2022-09-17T12:13:46.450Z,63.04
2022-09-17T12:14:45.397Z,62.63
2022-09-17T12:15:48.672Z,62.60
2022-09-17T12:16:46.430Z,61.32
2022-09-17T12:17:45.357Z,62.43
2022-09-17T12:18:45.350Z,64.04
2022-09-17T12:19:45.359Z,63.34
2022-09-17T12:20:45.331Z,63.34
2022-09-17T12:21:45.309Z,62.43
2022-09-17T12:22:45.309Z,61.41
2022-09-17T12:23:45.289Z,59.83
2022-09-17T12:24:45.319Z,60.77
2022-09-17T12:25:45.268Z,61.07
2022-09-17T12:26:45.261Z,59.45
2022-09-17T12:27:45.240Z,60.86
2022-09-17T12:28:45.240Z,61.68
2022-09-17T12:29:45.224Z,60.57
2022-09-17T12:30:45.240Z,62.29
2022-09-17T12:31:45.269Z,61.47
2022-09-17T12:32:45.190Z,62.31
2022-09-17T12:33:45.171Z,62.69
2022-09-17T12:34:45.169Z,62.99
2022-09-17T12:36:03.089Z,63.20
2022-09-17T12:36:46.171Z,62.29
2022-09-17T12:37:45.128Z,63.20
2022-09-17T12:38:45.121Z,62.79
2022-09-17T12:39:45.109Z,63.60
2022-09-17T12:40:45.101Z,63.90
2022-09-17T12:41:45.083Z,64.31
2022-09-17T12:42:45.101Z,64.07
2022-09-17T12:43:45.061Z,63.57
2022-09-17T12:44:45.052Z,64.51
2022-09-17T12:45:49.957Z,64.38
2022-09-17T12:46:46.076Z,64.89
2022-09-17T12:47:45.011Z,65.02
2022-09-17T12:48:45.022Z,64.48
2022-09-17T12:49:44.992Z,64.58
2022-09-17T12:50:44.984Z,64.65
2022-09-17T12:51:44.970Z,64.52
2022-09-17T12:52:44.961Z,62.90